createdAt,value
2016-07-28T00:00:25.737Z,18.21
2016-07-28T00:01:17.027Z,18.19
2016-07-28T00:02:27.213Z,18.22
2016-07-28T00:03:18.367Z,18.26
2016-07-28T00:04:19.647Z,18.18
2016-07-28T00:05:19.062Z,18.09
2016-07-28T00:06:12.026Z,18.05
2016-07-28T00:07:38.076Z,18.11
2016-07-28T00:09:32.812Z,18.13
2016-07-28T00:10:24.965Z,18.22
2016-07-28T00:12:20.678Z,18.17
2016-07-28T00:13:22.602Z,18.16
2016-07-28T00:14:14.055Z,18.20
2016-07-28T00:15:27.793Z,18.18
2016-07-28T00:16:19.005Z,18.16
2016-07-28T00:17:24.842Z,18.11
2016-07-28T00:18:16.835Z,18.15
2016-07-28T00:19:18.502Z,18.14
2016-07-28T00:20:18.612Z,18.11
2016-07-28T00:22:13.304Z,18.09
2016-07-28T00:23:16.182Z,18.03
2016-07-28T00:24:12.104Z,18.10
2016-07-28T00:25:19.853Z,18.09
2016-07-28T00:27:27.346Z,18.11
2016-07-28T00:28:22.922Z,18.05
2016-07-28T00:29:26.886Z,17.96
2016-07-28T00:30:16.834Z,17.94
2016-07-28T00:31:18.227Z,17.98
2016-07-28T00:32:23.359Z,18.01
2016-07-28T00:33:20.785Z,18.02
2016-07-28T00:34:18.947Z,18.03
2016-07-28T00:35:17.576Z,18.00
2016-07-28T00:37:17.430Z,18.06
2016-07-28T00:38:20.053Z,18.10
2016-07-28T00:39:23.294Z,18.06
2016-07-28T00:40:21.389Z,18.05
2016-07-28T00:41:20.422Z,18.03
2016-07-28T00:42:18.802Z,18.10
2016-07-28T00:43:13.229Z,18.03
2016-07-28T00:44:21.058Z,17.99
2016-07-28T00:45:15.044Z,18.00
2016-07-28T00:46:19.074Z,17.96
2016-07-28T00:47:21.242Z,17.95
2016-07-28T00:48:19.135Z,17.96
2016-07-28T00:50:11.984Z,17.98
2016-07-28T00:52:18.329Z,17.85
2016-07-28T00:53:26.350Z,17.88
2016-07-28T00:54:30.432Z,17.82
2016-07-28T00:55:17.434Z,17.78
2016-07-28T00:57:19.566Z,17.80
2016-07-28T00:58:30.803Z,17.81
2016-07-28T00:59:17.057Z,17.80
2016-07-28T01:00:20.657Z,17.81
2016-07-28T01:01:17.020Z,17.82
2016-07-28T01:02:28.329Z,17.88
2016-07-28T01:03:20.667Z,17.86
2016-07-28T01:04:12.114Z,17.84
2016-07-28T01:05:17.846Z,17.78
2016-07-28T01:06:19.607Z,17.75
2016-07-28T01:07:14.196Z,17.70
2016-07-28T01:08:20.623Z,17.69
2016-07-28T01:09:19.242Z,17.78
2016-07-28T01:10:18.309Z,17.74
2016-07-28T01:12:18.636Z,17.73
2016-07-28T01:13:14.750Z,17.74
2016-07-28T01:14:19.623Z,17.74
2016-07-28T01:15:24.755Z,17.79
2016-07-28T01:16:11.998Z,17.77
2016-07-28T01:18:13.984Z,17.77
2016-07-28T01:21:17.101Z,17.77
2016-07-28T01:23:17.318Z,17.74
2016-07-28T01:24:22.761Z,17.72
2016-07-28T01:25:18.031Z,17.77
2016-07-28T01:27:17.939Z,17.72
2016-07-28T01:28:16.721Z,17.79
2016-07-28T01:29:17.978Z,17.80
2016-07-28T01:31:20.073Z,17.69
2016-07-28T01:33:13.008Z,17.68
2016-07-28T01:34:14.848Z,17.69
2016-07-28T01:35:18.443Z,17.68
2016-07-28T01:36:25.790Z,17.57
2016-07-28T01:37:17.144Z,17.61
2016-07-28T01:38:27.097Z,17.69
2016-07-28T01:39:19.203Z,17.77
2016-07-28T01:40:17.189Z,17.80
2016-07-28T01:41:21.456Z,17.79
2016-07-28T01:42:23.322Z,17.66
2016-07-28T01:43:27.988Z,17.64
2016-07-28T01:44:16.867Z,17.65
2016-07-28T01:45:17.036Z,17.61
2016-07-28T01:46:26.454Z,17.62
2016-07-28T01:47:18.379Z,17.65
2016-07-28T01:48:18.034Z,17.60
2016-07-28T01:49:16.410Z,17.51
2016-07-28T01:50:17.422Z,17.57
2016-07-28T01:52:16.813Z,17.46
2016-07-28T01:53:32.881Z,17.45
2016-07-28T01:54:35.437Z,17.44
2016-07-28T01:55:22.463Z,17.45
2016-07-28T01:56:18.508Z,17.44
2016-07-28T01:57:13.353Z,17.43
2016-07-28T01:58:19.865Z,17.56
2016-07-28T01:59:19.634Z,17.54
2016-07-28T02:00:18.675Z,17.58
2016-07-28T02:01:16.037Z,17.59
2016-07-28T02:02:25.831Z,17.61
2016-07-28T02:03:20.398Z,17.60
2016-07-28T02:04:16.526Z,17.53
2016-07-28T02:05:18.295Z,17.62
2016-07-28T02:06:26.211Z,17.61
2016-07-28T02:07:23.445Z,17.64
2016-07-28T02:08:22.651Z,17.67
2016-07-28T02:09:27.298Z,17.69
2016-07-28T02:10:20.267Z,17.58
2016-07-28T02:11:23.840Z,17.51
2016-07-28T02:12:21.752Z,17.47
2016-07-28T02:13:24.984Z,17.49
2016-07-28T02:15:28.384Z,17.54
2016-07-28T02:16:18.126Z,17.58
2016-07-28T02:18:28.169Z,17.46
2016-07-28T02:19:24.112Z,17.44
2016-07-28T02:20:37.190Z,17.48
2016-07-28T02:21:18.056Z,17.46
2016-07-28T02:22:19.693Z,17.47
2016-07-28T02:23:17.159Z,17.42
2016-07-28T02:24:17.397Z,17.42
2016-07-28T02:25:17.369Z,17.45
2016-07-28T02:26:16.977Z,17.46
2016-07-28T02:27:23.080Z,17.52
2016-07-28T02:28:13.648Z,17.52
2016-07-28T02:29:18.936Z,17.44
2016-07-28T02:30:12.620Z,17.37
2016-07-28T02:31:22.395Z,17.27
2016-07-28T02:32:17.530Z,17.30
2016-07-28T02:34:22.320Z,17.41
2016-07-28T02:35:23.565Z,17.34
2016-07-28T02:36:27.865Z,17.34
2016-07-28T02:37:21.712Z,17.24
2016-07-28T02:38:21.920Z,17.22
2016-07-28T02:39:29.534Z,17.17
2016-07-28T02:40:17.270Z,17.18
2016-07-28T02:42:28.765Z,17.16
2016-07-28T02:43:21.707Z,17.25
2016-07-28T02:44:17.046Z,17.15
2016-07-28T02:45:32.645Z,17.10
2016-07-28T02:46:16.851Z,17.03
2016-07-28T02:47:13.717Z,17.04
2016-07-28T02:48:21.878Z,17.07
2016-07-28T02:49:23.072Z,17.12
2016-07-28T02:50:17.563Z,17.04
2016-07-28T02:51:21.587Z,17.03
2016-07-28T02:52:23.495Z,17.12
2016-07-28T02:53:22.492Z,17.03
2016-07-28T02:54:23.203Z,16.96
2016-07-28T02:55:17.328Z,17.01
2016-07-28T02:56:21.132Z,17.02
2016-07-28T02:57:24.555Z,17.01
2016-07-28T02:58:11.883Z,17.06
2016-07-28T02:59:34.546Z,16.96
2016-07-28T03:00:16.654Z,17.03
2016-07-28T03:01:25.882Z,16.97
2016-07-28T03:02:14.306Z,16.98
2016-07-28T03:03:23.065Z,16.94
2016-07-28T03:04:18.517Z,16.96
2016-07-28T03:05:17.626Z,16.91
2016-07-28T03:07:23.573Z,16.99
2016-07-28T03:08:20.568Z,17.00
2016-07-28T03:09:17.054Z,17.00
2016-07-28T03:10:23.375Z,16.93
2016-07-28T03:12:29.615Z,16.84
2016-07-28T03:13:17.259Z,16.86
2016-07-28T03:14:15.945Z,16.87
2016-07-28T03:15:21.579Z,16.84
2016-07-28T03:16:29.408Z,16.86
2016-07-28T03:17:23.473Z,16.88
2016-07-28T03:18:30.616Z,16.90
2016-07-28T03:19:17.093Z,16.88
2016-07-28T03:20:19.996Z,16.91
2016-07-28T03:21:20.616Z,16.94
2016-07-28T03:22:24.150Z,16.85
2016-07-28T03:23:19.200Z,16.85
2016-07-28T03:24:15.269Z,16.84
2016-07-28T03:25:18.330Z,16.83
2016-07-28T03:26:22.583Z,16.83
2016-07-28T03:27:28.587Z,16.84
2016-07-28T03:28:22.735Z,16.87
2016-07-28T03:30:17.802Z,16.86
2016-07-28T03:33:18.597Z,16.90
2016-07-28T03:34:21.644Z,16.85
2016-07-28T03:35:23.290Z,16.87
2016-07-28T03:36:21.873Z,16.83
2016-07-28T03:37:21.625Z,16.81
2016-07-28T03:38:20.847Z,16.82
2016-07-28T03:39:17.863Z,16.85
2016-07-28T03:40:18.997Z,16.88
2016-07-28T03:41:23.172Z,16.82
2016-07-28T03:42:18.913Z,16.82
2016-07-28T03:43:12.805Z,16.75
2016-07-28T03:44:17.298Z,16.73
2016-07-28T03:45:24.547Z,16.82
2016-07-28T03:46:17.606Z,16.87
2016-07-28T03:47:14.125Z,16.79
2016-07-28T03:48:20.657Z,16.77
2016-07-28T03:49:27.761Z,16.74
2016-07-28T03:50:27.315Z,16.77
2016-07-28T03:51:17.049Z,16.73
2016-07-28T03:52:11.644Z,16.73
2016-07-28T03:53:25.295Z,16.71
2016-07-28T03:54:22.239Z,16.68
2016-07-28T03:55:18.550Z,16.70
2016-07-28T03:56:18.743Z,16.67
2016-07-28T03:58:28.063Z,16.78
2016-07-28T03:59:19.652Z,16.69
2016-07-28T04:00:20.698Z,16.65
2016-07-28T04:01:11.588Z,16.64
2016-07-28T04:02:21.580Z,16.73
2016-07-28T04:03:25.378Z,16.83
2016-07-28T04:04:12.159Z,16.86
2016-07-28T04:05:12.898Z,16.79
2016-07-28T04:06:16.832Z,16.72
2016-07-28T04:07:21.629Z,16.68
2016-07-28T04:08:12.121Z,16.72
2016-07-28T04:09:19.520Z,16.70
2016-07-28T04:10:12.360Z,16.64
2016-07-28T04:11:14.919Z,16.71
2016-07-28T04:12:25.714Z,16.82
2016-07-28T04:13:11.894Z,16.87
2016-07-28T04:14:11.656Z,16.78
2016-07-28T04:15:17.298Z,16.65
2016-07-28T04:16:11.995Z,16.64
2016-07-28T04:17:18.693Z,16.60
2016-07-28T04:19:12.147Z,16.56
2016-07-28T04:20:16.966Z,16.57
2016-07-28T04:21:18.079Z,16.54
2016-07-28T04:22:24.222Z,16.63
2016-07-28T04:23:12.013Z,16.64
2016-07-28T04:24:16.980Z,16.60
2016-07-28T04:25:24.533Z,16.62
2016-07-28T04:26:11.902Z,16.60
2016-07-28T04:28:25.769Z,16.67
2016-07-28T04:29:24.572Z,16.57
2016-07-28T04:30:17.384Z,16.56
2016-07-28T04:31:23.279Z,16.58
2016-07-28T04:32:11.968Z,16.56
2016-07-28T04:33:18.062Z,16.61
2016-07-28T04:34:12.856Z,16.71
2016-07-28T04:35:17.059Z,16.71
2016-07-28T04:36:12.328Z,16.68
2016-07-28T04:37:11.736Z,16.70
2016-07-28T04:38:24.547Z,16.76
2016-07-28T04:39:12.592Z,16.76
2016-07-28T04:40:17.989Z,16.80
2016-07-28T04:41:17.974Z,16.69
2016-07-28T04:43:20.719Z,16.61
2016-07-28T04:44:21.257Z,16.67
2016-07-28T04:45:12.697Z,16.66
2016-07-28T04:46:11.843Z,16.61
2016-07-28T04:47:17.091Z,16.58
2016-07-28T04:48:11.361Z,16.63
2016-07-28T04:49:13.040Z,16.63
2016-07-28T04:50:18.027Z,16.61
2016-07-28T04:51:12.240Z,16.59
2016-07-28T04:53:23.219Z,16.73
2016-07-28T04:54:13.093Z,16.78
2016-07-28T04:55:17.425Z,16.73
2016-07-28T04:56:13.043Z,16.74
2016-07-28T04:58:14.151Z,16.85
2016-07-28T04:59:12.249Z,16.74
2016-07-28T05:00:12.362Z,16.72
2016-07-28T05:01:12.873Z,16.67
2016-07-28T05:02:17.108Z,16.79
2016-07-28T05:03:17.317Z,16.83
2016-07-28T05:04:11.561Z,16.89
2016-07-28T05:05:11.735Z,16.90
2016-07-28T05:06:26.815Z,16.88
2016-07-28T05:07:12.266Z,16.87
2016-07-28T05:08:17.378Z,16.89
2016-07-28T05:09:24.967Z,16.87
2016-07-28T05:10:12.884Z,16.86
2016-07-28T05:11:15.360Z,16.86
2016-07-28T05:12:17.210Z,16.89
2016-07-28T05:13:12.388Z,16.90
2016-07-28T05:14:17.696Z,16.89
2016-07-28T05:15:17.225Z,16.98
2016-07-28T05:16:17.514Z,17.02
2016-07-28T05:17:17.406Z,17.05
2016-07-28T05:18:12.041Z,17.01
2016-07-28T05:19:11.738Z,16.95
2016-07-28T05:20:12.760Z,16.98
2016-07-28T05:21:23.530Z,17.10
2016-07-28T05:22:17.187Z,17.13
2016-07-28T05:23:12.530Z,17.19
2016-07-28T05:24:17.236Z,17.10
2016-07-28T05:25:11.617Z,17.17
2016-07-28T05:26:16.886Z,17.19
2016-07-28T05:27:12.767Z,17.27
2016-07-28T05:28:23.069Z,17.35
2016-07-28T05:29:12.297Z,17.40
2016-07-28T05:31:17.705Z,17.44
2016-07-28T05:32:23.645Z,17.43
2016-07-28T05:33:17.836Z,17.45
2016-07-28T05:34:19.535Z,17.53
2016-07-28T05:36:18.479Z,17.57
2016-07-28T05:37:11.988Z,17.60
2016-07-28T05:38:47.457Z,17.60
2016-07-28T05:39:19.495Z,17.55
2016-07-28T05:40:22.705Z,17.57
2016-07-28T05:41:25.258Z,17.55
2016-07-28T05:43:12.661Z,17.66
2016-07-28T05:44:20.854Z,17.62
2016-07-28T05:45:25.556Z,17.64
2016-07-28T05:46:12.053Z,17.70
2016-07-28T05:47:17.000Z,17.76
2016-07-28T05:48:20.866Z,17.71
2016-07-28T05:49:17.786Z,17.74
2016-07-28T05:51:15.785Z,17.74
2016-07-28T05:52:24.104Z,17.75
2016-07-28T05:53:24.646Z,17.77
2016-07-28T05:54:12.579Z,17.84
2016-07-28T05:55:12.263Z,17.90
2016-07-28T05:56:11.646Z,17.93
2016-07-28T05:57:11.705Z,17.95
2016-07-28T05:58:23.211Z,17.90
2016-07-28T05:59:12.424Z,17.79
2016-07-28T06:00:11.524Z,17.86
2016-07-28T06:02:18.537Z,17.82
2016-07-28T06:03:29.701Z,17.94
2016-07-28T06:04:16.624Z,17.96
2016-07-28T06:05:26.159Z,17.96
2016-07-28T06:06:30.170Z,17.97
2016-07-28T06:07:22.711Z,17.90
2016-07-28T06:08:13.463Z,17.94
2016-07-28T06:09:12.395Z,17.94
2016-07-28T06:10:18.236Z,17.93
2016-07-28T06:12:21.945Z,18.05
2016-07-28T06:13:17.448Z,18.07
2016-07-28T06:15:21.653Z,18.07
2016-07-28T06:16:47.249Z,18.08
2016-07-28T06:17:17.669Z,18.14
2016-07-28T06:18:23.344Z,18.16
2016-07-28T06:19:19.749Z,18.20
2016-07-28T06:20:12.806Z,18.24
2016-07-28T06:21:12.948Z,18.26
2016-07-28T06:22:33.106Z,18.30
2016-07-28T06:23:26.096Z,18.33
2016-07-28T06:24:12.351Z,18.35
2016-07-28T06:25:11.684Z,18.38
2016-07-28T06:26:12.783Z,18.34
2016-07-28T06:27:17.421Z,18.35
2016-07-28T06:28:16.868Z,18.39
2016-07-28T06:29:12.869Z,18.42
2016-07-28T06:30:32.990Z,18.35
2016-07-28T06:32:34.649Z,18.26
2016-07-28T06:33:23.558Z,18.35
2016-07-28T06:34:17.292Z,18.31
2016-07-28T06:35:17.329Z,18.34
2016-07-28T06:36:23.578Z,18.31
2016-07-28T06:37:13.075Z,18.28
2016-07-28T06:38:28.325Z,18.25
2016-07-28T06:39:27.625Z,18.18
2016-07-28T06:40:19.653Z,18.25
2016-07-28T06:41:13.761Z,18.28
2016-07-28T06:42:20.164Z,18.38
2016-07-28T06:43:14.209Z,18.42
2016-07-28T06:45:30.756Z,18.40
2016-07-28T06:46:18.331Z,18.44
2016-07-28T06:47:13.514Z,18.44
2016-07-28T06:48:23.456Z,18.52
2016-07-28T06:49:35.807Z,18.47
2016-07-28T06:50:19.363Z,18.40
2016-07-28T06:51:12.217Z,18.41
2016-07-28T06:52:30.333Z,18.43
2016-07-28T06:53:19.077Z,18.49
2016-07-28T06:54:13.161Z,18.57
2016-07-28T06:55:17.485Z,18.58
2016-07-28T06:56:20.977Z,18.60
2016-07-28T06:57:13.058Z,18.67
2016-07-28T06:58:15.859Z,18.75
2016-07-28T06:59:12.680Z,18.78
2016-07-28T07:00:16.677Z,18.80
2016-07-28T07:01:11.834Z,18.75
2016-07-28T07:02:12.196Z,18.77
2016-07-28T07:03:12.987Z,18.82
2016-07-28T07:04:21.331Z,18.80
2016-07-28T07:05:17.288Z,18.75
2016-07-28T07:06:32.408Z,18.63
2016-07-28T07:07:16.887Z,18.70
2016-07-28T07:08:11.879Z,18.82
2016-07-28T07:09:17.027Z,18.90
2016-07-28T07:10:11.989Z,18.94
2016-07-28T07:11:12.010Z,18.99
2016-07-28T07:12:16.248Z,18.99
2016-07-28T07:13:17.572Z,19.04
2016-07-28T07:14:17.628Z,19.02
2016-07-28T07:15:19.206Z,19.02
2016-07-28T07:16:17.650Z,19.01
2016-07-28T07:18:17.632Z,19.03
2016-07-28T07:19:26.471Z,19.07
2016-07-28T07:20:12.681Z,19.02
2016-07-28T07:21:12.931Z,19.05
2016-07-28T07:22:30.604Z,19.08
2016-07-28T07:25:18.704Z,19.07
2016-07-28T07:26:18.633Z,19.12
2016-07-28T07:30:22.945Z,19.18
2016-07-28T07:31:18.047Z,19.14
2016-07-28T07:32:29.645Z,19.14
2016-07-28T07:34:14.960Z,19.28
2016-07-28T07:36:31.682Z,19.26
2016-07-28T07:37:22.219Z,19.29
2016-07-28T07:38:20.655Z,19.42
2016-07-28T07:40:12.360Z,19.41
2016-07-28T07:41:20.081Z,19.35
2016-07-28T07:42:13.451Z,19.35
2016-07-28T07:43:20.955Z,19.35
2016-07-28T07:45:15.391Z,19.38
2016-07-28T07:58:18.109Z,19.48
2016-07-28T07:59:24.053Z,19.53
2016-07-28T08:00:14.154Z,19.52
2016-07-28T08:01:22.055Z,19.49
2016-07-28T08:02:14.204Z,19.53
2016-07-28T08:03:09.959Z,19.51
2016-07-28T08:04:18.200Z,19.56
2016-07-28T08:05:33.133Z,19.55
2016-07-28T08:07:21.188Z,19.58
2016-07-28T08:08:15.374Z,19.57
2016-07-28T08:09:15.296Z,19.53
2016-07-28T08:10:11.813Z,19.57
2016-07-28T08:11:12.696Z,19.61
2016-07-28T08:12:12.604Z,19.64
2016-07-28T08:13:11.959Z,19.65
2016-07-28T08:14:16.934Z,19.69
2016-07-28T08:15:13.507Z,19.71
2016-07-28T08:16:24.770Z,19.67
2016-07-28T08:17:25.810Z,19.68
2016-07-28T08:18:16.020Z,19.68
2016-07-28T08:19:12.135Z,19.74
2016-07-28T08:20:11.804Z,19.80
2016-07-28T08:21:11.543Z,19.83
2016-07-28T08:22:17.646Z,19.84
2016-07-28T08:23:16.655Z,19.84
2016-07-28T08:24:12.122Z,19.85
2016-07-28T08:25:25.393Z,19.93
2016-07-28T08:26:17.113Z,19.98
2016-07-28T08:27:13.520Z,20.02
2016-07-28T08:28:22.058Z,20.02
2016-07-28T08:29:23.000Z,19.99
2016-07-28T08:30:11.611Z,20.01
2016-07-28T08:31:18.526Z,19.97
2016-07-28T08:32:12.174Z,19.95
2016-07-28T08:33:16.775Z,20.01
2016-07-28T08:34:11.764Z,20.06
2016-07-28T08:35:18.981Z,20.14
2016-07-28T08:36:16.547Z,20.10
2016-07-28T08:37:12.377Z,20.06
2016-07-28T08:38:17.155Z,20.02
2016-07-28T08:39:17.263Z,19.98
2016-07-28T08:40:16.851Z,20.03
2016-07-28T08:41:12.373Z,20.02
2016-07-28T08:42:12.387Z,20.02
2016-07-28T08:44:16.306Z,20.09
2016-07-28T08:45:16.938Z,20.08
2016-07-28T08:46:14.407Z,20.07
2016-07-28T08:47:13.097Z,20.08
2016-07-28T08:48:13.160Z,20.07
2016-07-28T08:49:12.100Z,20.06
2016-07-28T08:50:12.959Z,20.09
2016-07-28T08:51:21.278Z,20.13
2016-07-28T08:52:17.478Z,20.13
2016-07-28T08:53:11.953Z,20.24
2016-07-28T08:54:17.543Z,20.32
2016-07-28T08:55:14.135Z,20.43
2016-07-28T08:56:27.439Z,20.43
2016-07-28T08:57:16.843Z,20.38
2016-07-28T08:59:11.778Z,20.41
2016-07-28T09:00:12.570Z,20.47
2016-07-28T09:02:28.349Z,20.47
2016-07-28T09:03:14.229Z,20.50
2016-07-28T09:04:18.437Z,20.61
2016-07-28T09:05:24.925Z,20.67
2016-07-28T09:06:12.446Z,20.70
2016-07-28T09:07:16.813Z,20.68
2016-07-28T09:08:11.378Z,20.71
2016-07-28T09:09:16.748Z,20.77
2016-07-28T09:10:17.411Z,20.77
2016-07-28T09:11:12.390Z,20.76
2016-07-28T09:12:11.577Z,20.79
2016-07-28T09:13:12.578Z,20.74
2016-07-28T09:14:18.475Z,20.83
2016-07-28T09:15:12.591Z,20.76
2016-07-28T09:16:17.563Z,20.69
2016-07-28T09:17:26.945Z,20.68
2016-07-28T09:18:13.268Z,20.68
2016-07-28T09:19:11.910Z,20.73
2016-07-28T09:20:11.623Z,20.76
2016-07-28T09:21:11.782Z,20.79
2016-07-28T09:22:16.644Z,20.87
2016-07-28T09:23:14.290Z,20.97
2016-07-28T09:24:17.269Z,20.93
2016-07-28T09:25:27.458Z,20.85
2016-07-28T09:26:12.776Z,20.75
2016-07-28T09:27:12.372Z,20.66
2016-07-28T09:29:11.801Z,20.63
2016-07-28T09:30:22.359Z,20.76
2016-07-28T09:31:12.395Z,20.87
2016-07-28T09:32:13.509Z,20.93
2016-07-28T09:33:13.651Z,21.03
2016-07-28T09:34:17.293Z,21.16
2016-07-28T09:35:18.331Z,21.23
2016-07-28T09:36:23.411Z,21.39
2016-07-28T09:37:22.786Z,21.44
2016-07-28T09:38:12.355Z,21.39
2016-07-28T09:39:17.442Z,21.24
2016-07-28T09:40:12.789Z,21.13
2016-07-28T09:43:17.030Z,21.09
2016-07-28T09:44:11.967Z,21.13
2016-07-28T09:45:16.763Z,21.24
2016-07-28T09:46:16.763Z,21.27
2016-07-28T09:47:17.488Z,21.36
2016-07-28T09:48:23.072Z,21.41
2016-07-28T09:49:19.052Z,21.55
2016-07-28T09:50:13.854Z,21.60
2016-07-28T09:51:22.138Z,21.60
2016-07-28T09:52:16.966Z,21.59
2016-07-28T09:53:19.658Z,21.71
2016-07-28T09:55:11.863Z,21.82
2016-07-28T09:56:12.769Z,21.82
2016-07-28T09:57:19.464Z,21.80
2016-07-28T09:58:17.521Z,21.77
2016-07-28T09:59:13.306Z,21.73
2016-07-28T10:00:17.856Z,21.75
2016-07-28T10:01:12.935Z,21.82
2016-07-28T10:02:12.875Z,21.83
2016-07-28T10:03:25.348Z,21.70
2016-07-28T10:05:17.650Z,21.70
2016-07-28T10:06:18.510Z,21.80
2016-07-28T10:07:12.113Z,21.97
2016-07-28T10:08:25.597Z,22.12
2016-07-28T10:09:12.006Z,22.13
2016-07-28T10:10:16.610Z,22.16
2016-07-28T10:11:12.335Z,22.15
2016-07-28T10:12:23.762Z,22.15
2016-07-28T10:13:16.988Z,22.18
2016-07-28T10:14:19.298Z,22.20
2016-07-28T10:15:17.631Z,22.21
2016-07-28T10:16:12.796Z,22.15
2016-07-28T10:17:17.020Z,22.09
2016-07-28T10:18:19.486Z,22.13
2016-07-28T10:19:30.235Z,22.18
2016-07-28T10:20:17.809Z,22.19
2016-07-28T10:21:14.311Z,22.19
2016-07-28T10:22:17.176Z,22.12
2016-07-28T10:23:12.037Z,22.08
2016-07-28T10:24:11.774Z,22.02
2016-07-28T10:25:11.634Z,22.06
2016-07-28T10:26:18.484Z,22.20
2016-07-28T10:27:17.057Z,22.24
2016-07-28T10:29:26.589Z,22.51
2016-07-28T10:30:25.201Z,22.55
2016-07-28T10:31:22.349Z,22.36
2016-07-28T10:34:14.424Z,22.16
2016-07-28T10:35:17.495Z,22.06
2016-07-28T10:36:16.477Z,22.06
2016-07-28T10:38:16.714Z,22.18
2016-07-28T10:39:12.531Z,22.25
2016-07-28T10:40:12.861Z,22.28
2016-07-28T10:41:18.791Z,22.31
2016-07-28T10:42:17.995Z,22.32
2016-07-28T10:43:17.978Z,22.32
2016-07-28T10:44:15.006Z,22.29
2016-07-28T10:45:11.526Z,22.27
2016-07-28T10:46:16.965Z,22.25
2016-07-28T10:47:11.976Z,22.23
2016-07-28T10:48:17.748Z,22.20
2016-07-28T10:49:13.516Z,22.18
2016-07-28T10:50:15.337Z,22.17
2016-07-28T10:52:17.866Z,22.06
2016-07-28T10:53:22.766Z,22.14
2016-07-28T10:54:17.129Z,22.23
2016-07-28T10:55:12.739Z,22.25
2016-07-28T10:56:12.272Z,22.30
2016-07-28T10:57:22.065Z,22.40
2016-07-28T10:58:20.095Z,22.46
2016-07-28T10:59:26.121Z,22.54
2016-07-28T11:00:13.251Z,22.61
2016-07-28T11:01:22.789Z,22.71
2016-07-28T11:02:12.310Z,22.80
2016-07-28T11:03:12.830Z,22.75
2016-07-28T11:04:17.071Z,22.61
2016-07-28T11:05:13.025Z,22.56
2016-07-28T11:06:12.582Z,22.52
2016-07-28T11:07:32.152Z,22.51
2016-07-28T11:08:22.809Z,22.45
2016-07-28T11:09:17.951Z,22.40
2016-07-28T11:10:17.535Z,22.38
2016-07-28T11:11:29.583Z,22.38
2016-07-28T11:12:21.209Z,22.38
2016-07-28T11:13:14.301Z,22.36
2016-07-28T11:14:18.996Z,22.31
2016-07-28T11:17:17.513Z,22.27
2016-07-28T11:18:18.419Z,22.27
2016-07-28T11:19:18.678Z,22.27
2016-07-28T11:20:13.731Z,22.23
2016-07-28T11:21:17.213Z,22.18
2016-07-28T11:22:17.917Z,22.16
2016-07-28T11:23:25.835Z,22.13
2016-07-28T11:24:17.429Z,22.12
2016-07-28T11:25:13.134Z,22.11
2016-07-28T11:26:11.176Z,22.09
2016-07-28T11:27:12.792Z,22.05
2016-07-28T11:28:13.477Z,22.05
2016-07-28T11:29:12.476Z,22.03
2016-07-28T11:31:19.253Z,22.13
2016-07-28T11:32:21.092Z,22.12
2016-07-28T11:33:17.301Z,22.12
2016-07-28T11:34:17.202Z,22.10
2016-07-28T11:35:22.560Z,22.12
2016-07-28T11:36:17.543Z,22.13
2016-07-28T11:37:17.001Z,22.17
2016-07-28T11:38:18.445Z,22.18
2016-07-28T11:39:12.857Z,22.26
2016-07-28T11:40:16.814Z,22.34
2016-07-28T11:41:22.143Z,22.34
2016-07-28T11:42:11.788Z,22.41
2016-07-28T11:43:12.886Z,22.48
2016-07-28T11:44:12.541Z,22.49
2016-07-28T11:45:12.164Z,22.54
2016-07-28T11:46:12.502Z,22.54
2016-07-28T11:47:17.919Z,22.59
2016-07-28T11:48:16.771Z,22.58
2016-07-28T11:49:22.506Z,22.58
2016-07-28T11:50:16.888Z,22.56
2016-07-28T11:51:31.560Z,22.55
2016-07-28T11:52:11.690Z,22.56
2016-07-28T11:53:16.676Z,22.58
2016-07-28T11:54:22.105Z,22.59
2016-07-28T11:55:17.209Z,22.60
2016-07-28T11:56:22.376Z,22.61
2016-07-28T11:57:12.924Z,22.57
2016-07-28T11:58:12.173Z,22.53
2016-07-28T11:59:19.694Z,22.50
2016-07-28T12:01:20.149Z,22.55
2016-07-28T12:02:09.609Z,22.67
2016-07-28T12:04:16.950Z,22.84
2016-07-28T12:05:18.114Z,22.95
2016-07-28T12:08:12.526Z,22.92
2016-07-28T12:10:19.400Z,22.89
2016-07-28T12:11:22.091Z,22.87
2016-07-28T12:12:18.696Z,22.92
2016-07-28T12:13:27.954Z,23.00
2016-07-28T12:16:11.553Z,23.22
2016-07-28T12:17:12.328Z,23.25
2016-07-28T12:18:12.176Z,23.18
2016-07-28T12:19:17.783Z,23.15
2016-07-28T12:20:23.548Z,23.17
2016-07-28T12:21:13.108Z,23.22
2016-07-28T12:22:22.969Z,23.20
2016-07-28T12:23:13.063Z,23.26
2016-07-28T12:24:17.138Z,23.30
2016-07-28T12:25:17.615Z,23.28
2016-07-28T12:27:13.968Z,23.20
2016-07-28T12:28:18.003Z,23.32
2016-07-28T12:29:22.268Z,23.42
2016-07-28T12:30:12.774Z,23.51
2016-07-28T12:31:17.203Z,23.69
2016-07-28T12:32:12.627Z,23.83
2016-07-28T12:33:11.666Z,23.89
2016-07-28T12:34:22.308Z,23.98
2016-07-28T12:36:21.082Z,24.01
2016-07-28T12:37:12.905Z,24.07
2016-07-28T12:38:22.208Z,24.03
2016-07-28T12:39:29.362Z,24.03
2016-07-28T12:40:35.544Z,23.89
2016-07-28T12:42:23.489Z,23.66
2016-07-28T12:43:22.552Z,23.65
2016-07-28T12:44:17.362Z,23.67
2016-07-28T12:45:17.558Z,23.61
2016-07-28T12:46:19.002Z,23.56
2016-07-28T12:47:19.694Z,23.51
2016-07-28T12:48:21.932Z,23.62
2016-07-28T12:49:13.137Z,23.68
2016-07-28T12:50:14.237Z,23.67
2016-07-28T12:51:18.634Z,23.57
2016-07-28T12:52:32.567Z,23.58
2016-07-28T12:53:17.592Z,23.67
2016-07-28T12:54:12.566Z,23.77
2016-07-28T12:55:13.695Z,23.74
2016-07-28T12:56:21.694Z,23.80
2016-07-28T12:57:14.429Z,23.97
2016-07-28T12:58:14.538Z,24.18
2016-07-28T12:59:14.827Z,24.38
2016-07-28T13:00:17.673Z,24.49
2016-07-28T13:01:32.621Z,24.47
2016-07-28T13:02:13.737Z,24.42
2016-07-28T13:03:13.772Z,24.22
2016-07-28T13:04:12.711Z,24.19
2016-07-28T13:05:20.456Z,24.23
2016-07-28T13:06:27.662Z,24.26
2016-07-28T13:08:23.918Z,24.07
2016-07-28T13:09:17.611Z,23.96
2016-07-28T13:10:18.058Z,23.85
2016-07-28T13:11:27.210Z,23.84
2016-07-28T13:12:18.401Z,23.79
2016-07-28T13:13:17.854Z,23.74
2016-07-28T13:14:15.794Z,23.73
2016-07-28T13:15:12.631Z,23.69
2016-07-28T13:16:22.982Z,23.61
2016-07-28T13:17:12.180Z,23.57
2016-07-28T13:18:17.861Z,23.52
2016-07-28T13:19:12.155Z,23.45
2016-07-28T13:20:11.531Z,23.42
2016-07-28T13:21:11.750Z,23.41
2016-07-28T13:22:23.125Z,23.37
2016-07-28T13:23:12.846Z,23.35
2016-07-28T13:25:12.251Z,23.24
2016-07-28T13:26:23.338Z,23.22
2016-07-28T13:27:22.450Z,23.22
2016-07-28T13:28:28.394Z,23.23
2016-07-28T13:31:22.767Z,23.23
2016-07-28T13:32:23.957Z,23.17
2016-07-28T13:34:18.513Z,23.19
2016-07-28T13:35:12.487Z,23.21
2016-07-28T13:36:19.837Z,23.30
2016-07-28T13:37:27.928Z,23.37
2016-07-28T13:38:16.731Z,23.61
2016-07-28T13:39:17.670Z,23.77
2016-07-28T13:41:23.308Z,24.07
2016-07-28T13:42:22.325Z,24.21
2016-07-28T13:45:17.062Z,24.49
2016-07-28T13:46:18.470Z,24.60
2016-07-28T13:47:16.004Z,24.78
2016-07-28T13:48:17.772Z,24.94
2016-07-28T13:49:12.583Z,24.93
2016-07-28T13:50:11.995Z,25.00
2016-07-28T13:51:12.648Z,24.96
2016-07-28T13:52:18.030Z,25.01
2016-07-28T13:53:11.951Z,25.03
2016-07-28T13:54:19.500Z,25.11
2016-07-28T13:56:19.780Z,24.77
2016-07-28T13:57:31.747Z,24.58
2016-07-28T13:59:28.201Z,24.63
2016-07-28T14:03:16.963Z,24.90
2016-07-28T14:04:20.776Z,25.12
2016-07-28T14:05:22.822Z,25.05
2016-07-28T14:06:12.356Z,25.08
2016-07-28T14:07:13.445Z,25.15
2016-07-28T14:08:12.668Z,25.41
2016-07-28T14:09:16.174Z,25.34
2016-07-28T14:10:17.317Z,25.38
2016-07-28T14:11:16.964Z,25.46
2016-07-28T14:12:29.738Z,25.30
2016-07-28T14:13:12.907Z,24.96
2016-07-28T14:16:12.480Z,24.58
2016-07-28T14:17:30.912Z,24.60
2016-07-28T14:18:18.431Z,24.47
2016-07-28T14:19:10.923Z,24.39
2016-07-28T14:21:11.622Z,24.21
2016-07-28T14:22:11.942Z,24.30
2016-07-28T14:23:22.856Z,24.24
2016-07-28T14:24:11.522Z,24.33
2016-07-28T14:26:13.235Z,24.30
2016-07-28T14:28:28.194Z,24.12
2016-07-28T14:30:18.840Z,23.88
2016-07-28T14:31:22.548Z,23.87
2016-07-28T14:32:12.159Z,23.78
2016-07-28T14:33:12.458Z,23.77
2016-07-28T14:36:23.146Z,23.64
2016-07-28T14:37:12.219Z,23.65
2016-07-28T14:38:19.115Z,23.73
2016-07-28T14:39:18.902Z,23.80
2016-07-28T14:40:23.338Z,23.82
2016-07-28T14:41:17.163Z,23.90
2016-07-28T14:42:12.849Z,23.95
2016-07-28T14:43:23.154Z,24.02